Aérodrome :
LOGIN :

S'inscrire | Disclaimer

   EN    FR    IT 

 










Légende :    VFR   VFR Marginal   IFR   IFR Intensif   IFR Très Intensif
Visi : 
Plafond : 
>= 8 km
>= 3000ft
5 à 8 km
1000 à 3000 ft
1500m à 5 km
500 à 1000 ft
800 à 1500m
200 à 500 ft
< 800m
< 200 ft
Symboles :   Orages  Brouillard  Fortes neiges  Fortes précipitations  Vent > 20 kt
SIGMETs :   Divers  Orages  Givrage  Turbulence  Onde Orograph.  Cendres Volcan.






- Altitude de l'aérodrome : 277 ft
- Code IATA : JER


EGJJ - Jersey

DERNIER METAR :
  • 011150Z 04011KT 010V070 CAVOK 10/M01 Q1022

METARs EXPIRÉS :
  • 011120Z 03010KT 360V070 CAVOK 10/M00 Q1022
  • 011050Z 06010KT 360V090 CAVOK 09/M00 Q1022
  • 011020Z 06011KT 010V090 CAVOK 09/01 Q1023
  • 010950Z 05010KT 010V090 CAVOK 09/01 Q1023
  • 010920Z 06010KT 020V090 CAVOK 08/01 Q1023

TAF TAF EGJJ
Valide du 01 à 12h jusqu'au 01 à 21h UTC


011057Z 0112/0121 06008KT CAVOK
ATIS : +44 1534 498 073



MET'MAP, la Météo Aéronautique d'un coup d'oeil ! - Copyright ORBIFLY Décembre 2007 - Disclaimer

ORBIFLY MET'MAP TEAM :

Programmation & Développement : Alexandra Zaïnal
Sur une idée originale de : Baudouin d'Aumeries
Assistance à la programmation : Marc-Olivier Méhu
Soutien technique & logistique : Manuel Goepfert

Contact : metmap@orbifly.com




SOURCES & CREDITS :

   NOAA